createdAt,value
2018-09-14T00:00:46.103Z,1016.32
2018-09-14T00:01:46.124Z,1016.31
2018-09-14T00:02:46.133Z,1016.33
2018-09-14T00:03:46.133Z,1016.34
2018-09-14T00:04:46.145Z,1016.33
2018-09-14T00:05:46.167Z,1016.34
2018-09-14T00:06:46.147Z,1016.28
2018-09-14T00:07:46.156Z,1016.27
2018-09-14T00:08:46.204Z,1016.29
2018-09-14T00:09:46.214Z,1016.24
2018-09-14T00:10:46.321Z,1016.23
2018-09-14T00:11:46.212Z,1016.30
2018-09-14T00:12:46.220Z,1016.25
2018-09-14T00:13:46.203Z,1016.19
2018-09-14T00:14:46.294Z,1016.17
2018-09-14T00:15:46.229Z,1016.18
2018-09-14T00:16:46.271Z,1016.23
2018-09-14T00:17:46.269Z,1016.22
2018-09-14T00:18:46.276Z,1016.20
2018-09-14T00:19:46.272Z,1016.18
2018-09-14T00:20:46.325Z,1016.21
2018-09-14T00:21:46.289Z,1016.15
2018-09-14T00:22:46.314Z,1016.16
2018-09-14T00:23:46.326Z,1016.18
2018-09-14T00:24:46.318Z,1016.17
2018-09-14T00:25:46.341Z,1016.15
2018-09-14T00:26:46.349Z,1016.17
2018-09-14T00:27:46.359Z,1016.13
2018-09-14T00:28:46.352Z,1016.11
2018-09-14T00:29:46.371Z,1016.14
2018-09-14T00:30:46.399Z,1016.13
2018-09-14T00:31:46.518Z,1016.11
2018-09-14T00:32:46.607Z,1016.11
2018-09-14T00:33:46.396Z,1016.13
2018-09-14T00:34:46.444Z,1016.11
2018-09-14T00:35:46.431Z,1016.10
2018-09-14T00:36:46.443Z,1016.11
2018-09-14T00:37:46.455Z,1016.11
2018-09-14T00:38:46.528Z,1016.09
2018-09-14T00:39:46.452Z,1016.10
2018-09-14T00:40:46.516Z,1016.09
2018-09-14T00:41:46.506Z,1016.10
2018-09-14T00:42:46.581Z,1016.06
2018-09-14T00:43:46.540Z,1016.06
2018-09-14T00:44:46.512Z,1016.04
2018-09-14T00:45:46.569Z,1016.05
2018-09-14T00:46:46.558Z,1016.04
2018-09-14T00:47:46.547Z,1016.07
2018-09-14T00:48:46.568Z,1016.07
2018-09-14T00:49:46.589Z,1016.05
2018-09-14T00:50:46.555Z,1016.06
2018-09-14T00:51:46.568Z,1016.08
2018-09-14T00:52:46.629Z,1016.06
2018-09-14T00:53:46.593Z,1016.10
2018-09-14T00:54:46.631Z,1016.06
2018-09-14T00:55:46.674Z,1016.09
2018-09-14T00:56:46.632Z,1016.11
2018-09-14T00:57:46.672Z,1016.10
2018-09-14T00:58:46.647Z,1016.06
2018-09-14T00:59:46.658Z,1016.09
2018-09-14T01:00:46.657Z,1016.08
2018-09-14T01:01:46.658Z,1016.07
2018-09-14T01:02:46.718Z,1016.06
2018-09-14T01:03:46.755Z,1016.03
2018-09-14T01:04:46.692Z,1016.02
2018-09-14T01:05:46.730Z,1016.02
2018-09-14T01:06:46.743Z,1016.01
2018-09-14T01:07:46.758Z,1016.04
2018-09-14T01:08:46.771Z,1016.03
2018-09-14T01:09:46.779Z,1015.99
2018-09-14T01:10:46.779Z,1016.03
2018-09-14T01:11:46.779Z,1016.05
2018-09-14T01:12:46.776Z,1016.04
2018-09-14T01:13:46.782Z,1016.02
2018-09-14T01:14:46.848Z,1016.05
2018-09-14T01:15:46.810Z,1016.03
2018-09-14T01:16:46.819Z,1016.02
2018-09-14T01:17:46.843Z,1016.00
2018-09-14T01:18:46.847Z,1016.00
2018-09-14T01:19:46.873Z,1016.02
2018-09-14T01:20:46.863Z,1016.00
2018-09-14T01:21:46.885Z,1016.02
2018-09-14T01:22:46.871Z,1015.99
2018-09-14T01:23:46.895Z,1016.00
2018-09-14T01:24:46.919Z,1016.00
2018-09-14T01:25:46.918Z,1016.01
2018-09-14T01:26:46.924Z,1016.01
2018-09-14T01:27:46.935Z,1016.04
2018-09-14T01:28:46.942Z,1015.97
2018-09-14T01:29:46.964Z,1015.98
2018-09-14T01:30:46.945Z,1016.03
2018-09-14T01:31:46.972Z,1016.00
2018-09-14T01:32:46.993Z,1016.07
2018-09-14T01:33:46.971Z,1016.05
2018-09-14T01:34:46.993Z,1016.06
2018-09-14T01:35:47.011Z,1016.10
2018-09-14T01:36:46.995Z,1016.06
2018-09-14T01:37:47.063Z,1016.08
2018-09-14T01:38:47.027Z,1016.10
2018-09-14T01:39:47.070Z,1016.08
2018-09-14T01:40:47.039Z,1016.08
2018-09-14T01:41:47.066Z,1016.09
2018-09-14T01:42:47.091Z,1016.09
2018-09-14T01:43:47.092Z,1016.09
2018-09-14T01:44:47.119Z,1016.04
2018-09-14T01:45:47.094Z,1016.06
2018-09-14T01:46:47.108Z,1016.05
2018-09-14T01:47:47.139Z,1016.05
2018-09-14T01:48:47.119Z,1016.05
2018-09-14T01:49:47.149Z,1016.01
2018-09-14T01:50:47.178Z,1016.04
2018-09-14T01:51:47.172Z,1015.99
2018-09-14T01:52:47.168Z,1016.02
2018-09-14T01:53:47.173Z,1015.99
2018-09-14T01:54:47.238Z,1015.96
2018-09-14T01:55:47.192Z,1015.98
2018-09-14T01:56:47.233Z,1015.96
2018-09-14T01:57:47.223Z,1015.99
2018-09-14T01:58:47.235Z,1015.94
2018-09-14T01:59:47.240Z,1015.96
2018-09-14T02:00:47.218Z,1015.93
2018-09-14T02:01:47.259Z,1015.93
2018-09-14T02:02:47.267Z,1015.92
2018-09-14T02:03:47.293Z,1015.89
2018-09-14T02:04:47.268Z,1015.91
2018-09-14T02:05:47.305Z,1015.88
2018-09-14T02:06:47.304Z,1015.91
2018-09-14T02:07:47.321Z,1015.87
2018-09-14T02:08:47.344Z,1015.84
2018-09-14T02:09:47.358Z,1015.85
2018-09-14T02:10:47.312Z,1015.87
2018-09-14T02:11:47.343Z,1015.87
2018-09-14T02:12:47.402Z,1015.87
2018-09-14T02:13:47.348Z,1015.86
2018-09-14T02:14:47.402Z,1015.90
2018-09-14T02:15:47.361Z,1015.91
2018-09-14T02:16:47.392Z,1015.90
2018-09-14T02:17:47.413Z,1015.90
2018-09-14T02:18:47.430Z,1015.90
2018-09-14T02:19:47.463Z,1015.92
2018-09-14T02:20:47.456Z,1015.90
2018-09-14T02:21:47.435Z,1015.91
2018-09-14T02:22:47.452Z,1015.88
2018-09-14T02:23:47.449Z,1015.87
2018-09-14T02:24:47.457Z,1015.87
2018-09-14T02:25:47.501Z,1015.86
2018-09-14T02:26:47.558Z,1015.87
2018-09-14T02:27:47.486Z,1015.90
2018-09-14T02:28:47.500Z,1015.89
2018-09-14T02:29:47.521Z,1015.90
2018-09-14T02:30:47.581Z,1015.89
2018-09-14T02:31:47.552Z,1015.90
2018-09-14T02:32:47.537Z,1015.89
2018-09-14T02:33:47.554Z,1015.89
2018-09-14T02:34:47.574Z,1015.93
2018-09-14T02:35:47.609Z,1015.88
2018-09-14T02:36:47.586Z,1015.91
2018-09-14T02:37:47.608Z,1015.94
2018-09-14T02:38:47.602Z,1015.92
2018-09-14T02:39:47.625Z,1015.92
2018-09-14T02:40:47.625Z,1015.91
2018-09-14T02:41:47.672Z,1015.90
2018-09-14T02:42:47.647Z,1015.87
2018-09-14T02:43:47.635Z,1015.87
2018-09-14T02:44:47.656Z,1015.94
2018-09-14T02:45:47.717Z,1015.86
2018-09-14T02:46:47.698Z,1015.82
2018-09-14T02:47:47.735Z,1015.85
2018-09-14T02:48:47.721Z,1015.84
2018-09-14T02:49:47.722Z,1015.83
2018-09-14T02:50:47.711Z,1015.86
2018-09-14T02:51:47.736Z,1015.82
2018-09-14T02:52:47.795Z,1015.79
2018-09-14T02:53:47.744Z,1015.83
2018-09-14T02:54:47.763Z,1015.85
2018-09-14T02:55:47.788Z,1015.81
2018-09-14T02:56:47.766Z,1015.83
2018-09-14T02:57:47.797Z,1015.86
2018-09-14T02:58:47.781Z,1015.86
2018-09-14T02:59:47.812Z,1015.82
2018-09-14T03:00:47.839Z,1015.82
2018-09-14T03:01:47.823Z,1015.86
2018-09-14T03:02:47.827Z,1015.85
2018-09-14T03:03:47.885Z,1015.82
2018-09-14T03:04:47.837Z,1015.80
2018-09-14T03:05:47.886Z,1015.78
2018-09-14T03:06:47.877Z,1015.79
2018-09-14T03:07:47.896Z,1015.79
2018-09-14T03:08:47.909Z,1015.80
2018-09-14T03:09:47.936Z,1015.76
2018-09-14T03:10:47.932Z,1015.76
2018-09-14T03:11:47.924Z,1015.77
2018-09-14T03:12:47.936Z,1015.75
2018-09-14T03:13:47.925Z,1015.78
2018-09-14T03:14:47.944Z,1015.74
2018-09-14T03:15:47.969Z,1015.77
2018-09-14T03:16:47.979Z,1015.74
2018-09-14T03:17:48.016Z,1015.72
2018-09-14T03:18:47.997Z,1015.74
2018-09-14T03:19:48.010Z,1015.76
2018-09-14T03:20:48.032Z,1015.73
2018-09-14T03:21:48.093Z,1015.75
2018-09-14T03:22:48.019Z,1015.74
2018-09-14T03:23:48.032Z,1015.73
2018-09-14T03:24:48.043Z,1015.71
2018-09-14T03:25:48.027Z,1015.76
2018-09-14T03:26:48.113Z,1015.77
2018-09-14T03:27:48.071Z,1015.78
2018-09-14T03:28:48.115Z,1015.79
2018-09-14T03:29:48.069Z,1015.83
2018-09-14T03:30:48.126Z,1015.79
2018-09-14T03:31:48.674Z,1015.81
2018-09-14T03:32:48.107Z,1015.80
2018-09-14T03:33:48.145Z,1015.79
2018-09-14T03:34:48.123Z,1015.78
2018-09-14T03:35:48.145Z,1015.78
2018-09-14T03:36:48.152Z,1015.77
2018-09-14T03:37:48.149Z,1015.77
2018-09-14T03:38:48.202Z,1015.77
2018-09-14T03:39:48.207Z,1015.79
2018-09-14T03:40:48.180Z,1015.78
2018-09-14T03:41:48.235Z,1015.77
2018-09-14T03:42:48.245Z,1015.84
2018-09-14T03:43:48.207Z,1015.81
2018-09-14T03:44:48.255Z,1015.84
2018-09-14T03:45:48.245Z,1015.84
2018-09-14T03:46:48.272Z,1015.84
2018-09-14T03:47:48.252Z,1015.81
2018-09-14T03:48:48.289Z,1015.80
2018-09-14T03:49:48.395Z,1015.79
2018-09-14T03:50:48.285Z,1015.79
2018-09-14T03:51:48.303Z,1015.86
2018-09-14T03:52:48.309Z,1015.84
2018-09-14T03:53:48.332Z,1015.84
2018-09-14T03:54:48.583Z,1015.87
2018-09-14T03:55:48.346Z,1015.88
2018-09-14T03:56:48.365Z,1015.86
2018-09-14T03:57:48.493Z,1015.87
2018-09-14T03:58:48.339Z,1015.82
2018-09-14T03:59:48.372Z,1015.79
2018-09-14T04:00:48.384Z,1015.84
2018-09-14T04:01:48.400Z,1015.85
2018-09-14T04:02:48.384Z,1015.86
2018-09-14T04:03:48.444Z,1015.88
2018-09-14T04:04:48.535Z,1015.88
2018-09-14T04:05:48.434Z,1015.86
2018-09-14T04:06:48.455Z,1015.88
2018-09-14T04:07:48.732Z,1015.88
2018-09-14T04:08:48.447Z,1015.86
2018-09-14T04:09:48.476Z,1015.83
2018-09-14T04:10:48.501Z,1015.80
2018-09-14T04:11:48.493Z,1015.84
2018-09-14T04:12:48.482Z,1015.83
2018-09-14T04:13:48.553Z,1015.84
2018-09-14T04:14:48.508Z,1015.81
2018-09-14T04:15:48.525Z,1015.83
2018-09-14T04:16:48.562Z,1015.84
2018-09-14T04:17:48.726Z,1015.86
2018-09-14T04:18:48.547Z,1015.89
2018-09-14T04:19:48.558Z,1015.82
2018-09-14T04:20:48.566Z,1015.85
2018-09-14T04:21:48.593Z,1015.90
2018-09-14T04:22:48.601Z,1015.88
2018-09-14T04:23:48.663Z,1015.86
2018-09-14T04:24:48.639Z,1015.83
2018-09-14T04:25:48.676Z,1015.89
2018-09-14T04:26:48.616Z,1015.89
2018-09-14T04:27:48.640Z,1015.87
2018-09-14T04:28:48.634Z,1015.90
2018-09-14T04:29:48.691Z,1015.88
2018-09-14T04:30:48.654Z,1015.90
2018-09-14T04:31:48.673Z,1015.87
2018-09-14T04:32:48.668Z,1015.85
2018-09-14T04:33:48.826Z,1015.84
2018-09-14T04:34:48.740Z,1015.85
2018-09-14T04:35:48.707Z,1015.80
2018-09-14T04:36:48.749Z,1015.82
2018-09-14T04:37:48.779Z,1015.84
2018-09-14T04:38:48.777Z,1015.86
2018-09-14T04:39:48.773Z,1015.85
2018-09-14T04:40:48.786Z,1015.84
2018-09-14T04:41:48.753Z,1015.81
2018-09-14T04:42:48.808Z,1015.83
2018-09-14T04:43:48.801Z,1015.84
2018-09-14T04:44:48.857Z,1015.86
2018-09-14T04:45:48.811Z,1015.87
2018-09-14T04:46:48.808Z,1015.85
2018-09-14T04:47:48.831Z,1015.85
2018-09-14T04:48:48.849Z,1015.88
2018-09-14T04:49:48.942Z,1015.84
2018-09-14T04:50:48.847Z,1015.88
2018-09-14T04:51:48.865Z,1015.87
2018-09-14T04:52:48.909Z,1015.89
2018-09-14T04:53:48.982Z,1015.86
2018-09-14T04:54:48.884Z,1015.88
2018-09-14T04:55:48.926Z,1015.88
2018-09-14T04:56:49.017Z,1015.87
2018-09-14T04:57:48.931Z,1015.88
2018-09-14T04:58:48.932Z,1015.87
2018-09-14T04:59:48.953Z,1015.87
2018-09-14T05:00:48.949Z,1015.85
2018-09-14T05:01:48.976Z,1015.84
2018-09-14T05:02:48.973Z,1015.82
2018-09-14T05:03:49.024Z,1015.85
2018-09-14T05:04:48.985Z,1015.87
2018-09-14T05:05:48.993Z,1015.90
2018-09-14T05:06:49.019Z,1015.89
2018-09-14T05:07:49.029Z,1015.90
2018-09-14T05:08:49.066Z,1015.93
2018-09-14T05:09:49.028Z,1015.94
2018-09-14T05:10:49.081Z,1015.98
2018-09-14T05:11:49.091Z,1015.96
2018-09-14T05:12:49.063Z,1015.95
2018-09-14T05:13:49.089Z,1016.01
2018-09-14T05:14:49.101Z,1015.96
2018-09-14T05:15:49.098Z,1015.99
2018-09-14T05:16:49.429Z,1016.01
2018-09-14T05:17:49.144Z,1015.99
2018-09-14T05:18:49.124Z,1016.00
2018-09-14T05:19:49.147Z,1016.01
2018-09-14T05:20:49.181Z,1016.02
2018-09-14T05:21:49.212Z,1016.03
2018-09-14T05:22:49.200Z,1016.01
2018-09-14T05:23:49.220Z,1016.04
2018-09-14T05:24:49.235Z,1016.03
2018-09-14T05:25:49.228Z,1016.07
2018-09-14T05:26:49.199Z,1016.05
2018-09-14T05:27:49.256Z,1016.06
2018-09-14T05:28:49.286Z,1016.03
2018-09-14T05:29:49.301Z,1016.05
2018-09-14T05:30:49.254Z,1016.08
2018-09-14T05:31:49.259Z,1016.08
2018-09-14T05:32:49.280Z,1016.08
2018-09-14T05:33:49.303Z,1016.10
2018-09-14T05:34:49.272Z,1016.10
2018-09-14T05:35:49.291Z,1016.07
2018-09-14T05:36:49.311Z,1016.11
2018-09-14T05:37:49.328Z,1016.13
2018-09-14T05:38:49.327Z,1016.11
2018-09-14T05:39:49.372Z,1016.16
2018-09-14T05:40:49.426Z,1016.13
2018-09-14T05:41:49.350Z,1016.15
2018-09-14T05:42:49.393Z,1016.14
2018-09-14T05:43:49.359Z,1016.15
2018-09-14T05:44:49.398Z,1016.14
2018-09-14T05:45:49.455Z,1016.14
2018-09-14T05:46:49.426Z,1016.16
2018-09-14T05:47:49.427Z,1016.18
2018-09-14T05:48:49.766Z,1016.17
2018-09-14T05:49:49.451Z,1016.17
2018-09-14T05:50:49.496Z,1016.15
2018-09-14T05:51:49.570Z,1016.18
2018-09-14T05:52:49.466Z,1016.18
2018-09-14T05:53:49.471Z,1016.20
2018-09-14T05:54:49.493Z,1016.18
2018-09-14T05:55:49.527Z,1016.21
2018-09-14T05:56:49.496Z,1016.20
2018-09-14T05:57:49.511Z,1016.24
2018-09-14T05:58:49.614Z,1016.23
2018-09-14T05:59:49.507Z,1016.25
2018-09-14T06:00:49.553Z,1016.25
2018-09-14T06:01:49.595Z,1016.26
2018-09-14T06:02:49.578Z,1016.22
2018-09-14T06:03:49.561Z,1016.29
2018-09-14T06:04:49.581Z,1016.28
2018-09-14T06:05:49.710Z,1016.28
2018-09-14T06:06:49.600Z,1016.24
2018-09-14T06:07:49.610Z,1016.27
2018-09-14T06:08:49.631Z,1016.31
2018-09-14T06:09:49.640Z,1016.29
2018-09-14T06:10:49.663Z,1016.29
2018-09-14T06:11:49.635Z,1016.34
2018-09-14T06:12:49.724Z,1016.34
2018-09-14T06:13:49.649Z,1016.33
2018-09-14T06:14:49.680Z,1016.33
2018-09-14T06:15:49.707Z,1016.33
2018-09-14T06:16:49.685Z,1016.36
2018-09-14T06:17:49.712Z,1016.30
2018-09-14T06:18:49.768Z,1016.40
2018-09-14T06:19:49.769Z,1016.36
2018-09-14T06:20:49.748Z,1016.38
2018-09-14T06:21:49.739Z,1016.39
2018-09-14T06:22:49.778Z,1016.40
2018-09-14T06:23:49.769Z,1016.40
2018-09-14T06:24:49.788Z,1016.44
2018-09-14T06:25:49.818Z,1016.44
2018-09-14T06:26:49.806Z,1016.48
2018-09-14T06:27:49.831Z,1016.45
2018-09-14T06:28:49.811Z,1016.43
2018-09-14T06:29:49.891Z,1016.44
2018-09-14T06:30:49.877Z,1016.44
2018-09-14T06:31:49.856Z,1016.47
2018-09-14T06:32:49.862Z,1016.45
2018-09-14T06:33:49.868Z,1016.46
2018-09-14T06:34:49.944Z,1016.45
2018-09-14T06:35:49.938Z,1016.44
2018-09-14T06:36:49.904Z,1016.46
2018-09-14T06:37:49.916Z,1016.46
2018-09-14T06:38:49.932Z,1016.48
2018-09-14T06:39:49.965Z,1016.44
2018-09-14T06:40:50.055Z,1016.48
2018-09-14T06:41:50.020Z,1016.45
2018-09-14T06:42:49.959Z,1016.44
2018-09-14T06:43:50.008Z,1016.42
2018-09-14T06:44:50.045Z,1016.44
2018-09-14T06:45:50.010Z,1016.41
2018-09-14T06:46:49.985Z,1016.40
2018-09-14T06:47:50.011Z,1016.40
2018-09-14T06:48:50.067Z,1016.42
2018-09-14T06:49:50.036Z,1016.43
2018-09-14T06:50:50.046Z,1016.44
2018-09-14T06:51:50.044Z,1016.43
2018-09-14T06:52:50.067Z,1016.43
2018-09-14T06:53:50.108Z,1016.49
2018-09-14T06:54:50.094Z,1016.46
2018-09-14T06:55:50.139Z,1016.45
2018-09-14T06:56:50.150Z,1016.50
2018-09-14T06:57:50.154Z,1016.48
2018-09-14T06:58:50.148Z,1016.50
2018-09-14T06:59:50.158Z,1016.52
2018-09-14T07:00:50.155Z,1016.54
2018-09-14T07:01:50.147Z,1016.53
2018-09-14T07:02:50.160Z,1016.51
2018-09-14T07:03:50.256Z,1016.56
2018-09-14T07:04:50.185Z,1016.52
2018-09-14T07:05:50.226Z,1016.53
2018-09-14T07:06:50.218Z,1016.54
2018-09-14T07:07:50.219Z,1016.54
2018-09-14T07:08:50.257Z,1016.57
2018-09-14T07:09:50.248Z,1016.57
2018-09-14T07:10:50.318Z,1016.58
2018-09-14T07:11:50.424Z,1016.61
2018-09-14T07:12:50.383Z,1016.59
2018-09-14T07:13:50.284Z,1016.62
2018-09-14T07:14:50.296Z,1016.63
2018-09-14T07:15:50.340Z,1016.62
2018-09-14T07:16:50.321Z,1016.66
2018-09-14T07:17:50.308Z,1016.64
2018-09-14T07:18:50.328Z,1016.59
2018-09-14T07:19:50.340Z,1016.61
2018-09-14T07:20:50.387Z,1016.62
2018-09-14T07:21:50.498Z,1016.63
2018-09-14T07:22:50.378Z,1016.69
2018-09-14T07:23:50.384Z,1016.66
2018-09-14T07:24:50.536Z,1016.67
2018-09-14T07:25:50.478Z,1016.66
2018-09-14T07:26:50.437Z,1016.68
2018-09-14T07:27:50.463Z,1016.65
2018-09-14T07:28:50.580Z,1016.70
2018-09-14T07:29:50.539Z,1016.69
2018-09-14T07:30:50.528Z,1016.71
2018-09-14T07:31:50.562Z,1016.75
2018-09-14T07:32:50.497Z,1016.75
2018-09-14T07:33:50.532Z,1016.75
2018-09-14T07:34:50.506Z,1016.77
2018-09-14T07:35:50.550Z,1016.71
2018-09-14T07:36:50.537Z,1016.73
2018-09-14T07:37:50.528Z,1016.71
2018-09-14T07:38:50.568Z,1016.76
2018-09-14T07:39:50.557Z,1016.75
2018-09-14T07:40:50.632Z,1016.76
2018-09-14T07:41:50.638Z,1016.80
2018-09-14T07:42:50.584Z,1016.77
2018-09-14T07:43:50.611Z,1016.77
2018-09-14T07:44:50.623Z,1016.78
2018-09-14T07:45:50.708Z,1016.77
2018-09-14T07:46:50.635Z,1016.76
2018-09-14T07:47:50.681Z,1016.76
2018-09-14T07:48:50.660Z,1016.80
2018-09-14T07:49:50.708Z,1016.81
2018-09-14T07:50:50.698Z,1016.87
2018-09-14T07:51:50.701Z,1016.82
2018-09-14T07:52:50.728Z,1016.85
2018-09-14T07:53:50.718Z,1016.87
2018-09-14T07:54:50.731Z,1016.86
2018-09-14T07:55:50.721Z,1016.87
2018-09-14T07:56:50.790Z,1016.87
2018-09-14T07:57:51.331Z,1016.89
2018-09-14T07:58:50.908Z,1016.88
2018-09-14T07:59:50.840Z,1016.86
2018-09-14T08:00:50.794Z,1016.88
2018-09-14T08:01:51.663Z,1016.86
2018-09-14T08:02:50.821Z,1016.89
2018-09-14T08:03:50.841Z,1016.91
2018-09-14T08:04:50.854Z,1016.93
2018-09-14T08:05:50.844Z,1016.92
2018-09-14T08:06:50.860Z,1016.92
2018-09-14T08:07:50.901Z,1016.97
2018-09-14T08:08:50.881Z,1016.95
2018-09-14T08:09:50.880Z,1016.94
2018-09-14T08:10:50.888Z,1016.98
2018-09-14T08:11:51.008Z,1016.93
2018-09-14T08:12:50.946Z,1016.96
2018-09-14T08:13:50.940Z,1016.95
2018-09-14T08:14:51.277Z,1016.98
2018-09-14T08:15:50.972Z,1016.99
2018-09-14T08:16:53.551Z,1016.99
2018-09-14T08:17:51.125Z,1016.99
2018-09-14T08:18:51.021Z,1017.00
2018-09-14T08:19:51.033Z,1017.00
2018-09-14T08:20:51.915Z,1017.01
2018-09-14T08:21:52.233Z,1017.02
2018-09-14T08:22:51.083Z,1017.02
2018-09-14T08:23:51.053Z,1017.00
2018-09-14T08:24:51.203Z,1017.03
2018-09-14T08:25:51.872Z,1017.03
2018-09-14T08:26:52.634Z,1017.04
2018-09-14T08:27:51.257Z,1017.09
2018-09-14T08:28:51.375Z,1017.10
2018-09-14T08:29:51.374Z,1017.08
2018-09-14T08:30:51.259Z,1017.05
2018-09-14T08:31:51.157Z,1017.06
2018-09-14T08:32:51.634Z,1017.04
2018-09-14T08:33:51.535Z,1017.05
2018-09-14T08:34:51.383Z,1017.07
2018-09-14T08:35:51.311Z,1017.05
2018-09-14T08:36:51.238Z,1017.07
2018-09-14T08:37:51.221Z,1017.06
2018-09-14T08:38:51.344Z,1017.07
2018-09-14T08:39:51.249Z,1017.08
2018-09-14T08:40:51.333Z,1017.04
2018-09-14T08:41:51.250Z,1017.05
2018-09-14T08:42:51.264Z,1017.06
2018-09-14T08:43:51.388Z,1017.07
2018-09-14T08:44:51.515Z,1017.06
2018-09-14T08:45:51.320Z,1017.07
2018-09-14T08:46:51.357Z,1017.06
2018-09-14T08:47:51.394Z,1017.07
2018-09-14T08:48:51.348Z,1017.05
2018-09-14T08:49:51.349Z,1017.07
2018-09-14T08:50:51.360Z,1017.09
2018-09-14T08:51:51.395Z,1017.05
2018-09-14T08:52:51.407Z,1017.02
2018-09-14T08:53:51.401Z,1017.02
2018-09-14T08:54:51.420Z,1017.06
2018-09-14T08:55:51.455Z,1017.03
2018-09-14T08:56:51.451Z,1017.06
2018-09-14T08:57:51.690Z,1017.06
2018-09-14T08:58:51.498Z,1017.03
2018-09-14T08:59:52.153Z,1017.07
2018-09-14T09:00:51.472Z,1017.04
2018-09-14T09:01:51.594Z,1017.04
2018-09-14T09:02:51.539Z,1017.03
2018-09-14T09:03:51.584Z,1017.03
2018-09-14T09:04:51.549Z,1017.00
2018-09-14T09:05:52.198Z,1017.03
2018-09-14T09:06:51.578Z,1017.00
2018-09-14T09:07:51.598Z,1017.04
2018-09-14T09:08:51.613Z,1017.00
2018-09-14T09:09:51.586Z,1017.02
2018-09-14T09:10:51.588Z,1017.02
2018-09-14T09:11:51.621Z,1016.99
2018-09-14T09:12:51.674Z,1017.02
2018-09-14T09:13:51.647Z,1017.04
2018-09-14T09:14:51.673Z,1017.05
2018-09-14T09:15:51.676Z,1017.08
2018-09-14T09:16:51.658Z,1017.07
2018-09-14T09:17:51.798Z,1017.08
2018-09-14T09:18:51.771Z,1017.05
2018-09-14T09:19:51.770Z,1017.11
2018-09-14T09:20:51.726Z,1017.10
2018-09-14T09:21:51.711Z,1017.08
2018-09-14T09:22:51.754Z,1017.08
2018-09-14T09:23:51.834Z,1017.08
2018-09-14T09:24:51.792Z,1017.03
2018-09-14T09:25:51.799Z,1017.01
2018-09-14T09:26:51.831Z,1017.03
2018-09-14T09:27:51.799Z,1017.03
2018-09-14T09:28:51.853Z,1017.01
2018-09-14T09:29:51.812Z,1016.99
2018-09-14T09:30:51.858Z,1016.97
2018-09-14T09:31:51.865Z,1016.96
2018-09-14T09:32:51.889Z,1016.96
2018-09-14T09:33:51.889Z,1016.96
2018-09-14T09:34:51.900Z,1016.93
2018-09-14T09:35:51.920Z,1016.98
2018-09-14T09:36:51.908Z,1016.96
2018-09-14T09:38:00.100Z,1016.95
2018-09-14T09:38:53.059Z,1016.92
2018-09-14T09:39:52.012Z,1016.94
2018-09-14T09:40:51.946Z,1016.91
2018-09-14T09:41:51.982Z,1016.92
2018-09-14T09:42:51.989Z,1016.93
2018-09-14T09:43:52.010Z,1016.94
2018-09-14T09:44:52.041Z,1016.94
2018-09-14T09:45:52.114Z,1016.98
2018-09-14T09:46:52.042Z,1016.97
2018-09-14T09:47:52.953Z,1016.97
2018-09-14T09:48:52.155Z,1016.95
2018-09-14T09:49:52.055Z,1016.95
2018-09-14T09:50:52.191Z,1016.98
2018-09-14T09:51:52.083Z,1016.96
2018-09-14T09:52:52.109Z,1016.95
2018-09-14T09:53:52.130Z,1016.95
2018-09-14T09:54:52.135Z,1016.94
2018-09-14T09:55:52.158Z,1016.94
2018-09-14T09:56:52.135Z,1016.94
2018-09-14T09:57:52.189Z,1016.89
2018-09-14T09:58:52.167Z,1016.91
2018-09-14T09:59:52.179Z,1016.89
2018-09-14T10:00:52.217Z,1016.91
2018-09-14T10:01:52.400Z,1016.90
2018-09-14T10:02:52.248Z,1016.90
2018-09-14T10:03:52.497Z,1016.89
2018-09-14T10:04:52.258Z,1016.87
2018-09-14T10:05:52.242Z,1016.86
2018-09-14T10:06:52.302Z,1016.88
2018-09-14T10:07:52.515Z,1016.82
2018-09-14T10:08:52.322Z,1016.83
2018-09-14T10:09:52.395Z,1016.84
2018-09-14T10:10:52.326Z,1016.85
2018-09-14T10:11:52.432Z,1016.82
2018-09-14T10:12:52.369Z,1016.79
2018-09-14T10:13:52.425Z,1016.85
2018-09-14T10:14:52.380Z,1016.81
2018-09-14T10:15:52.377Z,1016.82
2018-09-14T10:16:52.385Z,1016.84
2018-09-14T10:17:52.408Z,1016.83
2018-09-14T10:18:52.442Z,1016.83
2018-09-14T10:19:52.441Z,1016.84
2018-09-14T10:20:52.471Z,1016.82
2018-09-14T10:21:52.544Z,1016.84
2018-09-14T10:22:52.478Z,1016.83
2018-09-14T10:23:52.777Z,1016.78
2018-09-14T10:24:52.712Z,1016.79
2018-09-14T10:25:52.502Z,1016.79
2018-09-14T10:26:52.548Z,1016.78
2018-09-14T10:27:52.514Z,1016.83
2018-09-14T10:28:52.621Z,1016.82
2018-09-14T10:29:52.521Z,1016.83
2018-09-14T10:30:52.662Z,1016.82
2018-09-14T10:31:53.058Z,1016.83
2018-09-14T10:32:52.584Z,1016.84
2018-09-14T10:33:52.618Z,1016.78
2018-09-14T10:34:52.657Z,1016.80
2018-09-14T10:35:52.601Z,1016.80
2018-09-14T10:36:52.685Z,1016.81
2018-09-14T10:37:52.621Z,1016.82
2018-09-14T10:38:52.632Z,1016.82
2018-09-14T10:39:52.675Z,1016.83
2018-09-14T10:40:52.772Z,1016.82
2018-09-14T10:41:52.717Z,1016.81
2018-09-14T10:42:52.762Z,1016.80
2018-09-14T10:43:52.711Z,1016.80
2018-09-14T10:44:52.719Z,1016.82
2018-09-14T10:45:52.773Z,1016.80
2018-09-14T10:46:52.762Z,1016.85
2018-09-14T10:47:52.751Z,1016.80
2018-09-14T10:48:52.798Z,1016.81
2018-09-14T10:49:52.771Z,1016.80
2018-09-14T10:50:52.809Z,1016.81
2018-09-14T10:51:52.817Z,1016.81
2018-09-14T10:52:52.902Z,1016.82
2018-09-14T10:53:52.845Z,1016.82
2018-09-14T10:54:52.906Z,1016.82
2018-09-14T10:55:52.916Z,1016.82
2018-09-14T10:56:52.886Z,1016.77
2018-09-14T10:57:52.906Z,1016.75
2018-09-14T10:58:52.922Z,1016.76
2018-09-14T10:59:52.892Z,1016.79
2018-09-14T11:00:53.005Z,1016.78
2018-09-14T11:01:52.934Z,1016.76
2018-09-14T11:02:52.921Z,1016.77
2018-09-14T11:03:52.987Z,1016.77
2018-09-14T11:04:52.959Z,1016.78
2018-09-14T11:05:53.005Z,1016.78
2018-09-14T11:06:52.985Z,1016.74
2018-09-14T11:07:53.255Z,1016.78
2018-09-14T11:08:53.027Z,1016.74
2018-09-14T11:09:53.072Z,1016.73
2018-09-14T11:10:53.059Z,1016.71
2018-09-14T11:11:53.051Z,1016.71
2018-09-14T11:12:53.127Z,1016.75
2018-09-14T11:13:53.217Z,1016.71
2018-09-14T11:14:53.111Z,1016.73
2018-09-14T11:15:53.090Z,1016.75
2018-09-14T11:16:53.138Z,1016.72
2018-09-14T11:17:53.139Z,1016.72
2018-09-14T11:18:53.223Z,1016.72
2018-09-14T11:19:53.159Z,1016.76
2018-09-14T11:20:53.150Z,1016.70
2018-09-14T11:21:53.200Z,1016.70
2018-09-14T11:22:53.179Z,1016.68
2018-09-14T11:23:53.196Z,1016.69
2018-09-14T11:24:53.337Z,1016.65
2018-09-14T11:25:53.232Z,1016.67
2018-09-14T11:26:53.219Z,1016.72
2018-09-14T11:27:53.279Z,1016.68
2018-09-14T11:28:53.245Z,1016.68
2018-09-14T11:29:53.326Z,1016.64
2018-09-14T11:30:53.388Z,1016.65
2018-09-14T11:31:53.290Z,1016.71
2018-09-14T11:32:53.372Z,1016.70
2018-09-14T11:33:53.316Z,1016.67
2018-09-14T11:34:53.316Z,1016.66
2018-09-14T11:35:53.348Z,1016.64
2018-09-14T11:36:53.358Z,1016.67
2018-09-14T11:37:53.509Z,1016.68
2018-09-14T11:38:53.385Z,1016.67
2018-09-14T11:39:53.497Z,1016.66
2018-09-14T11:40:53.455Z,1016.67
2018-09-14T11:41:53.456Z,1016.62
2018-09-14T11:42:53.450Z,1016.66
2018-09-14T11:43:53.467Z,1016.66
2018-09-14T11:44:53.473Z,1016.61
2018-09-14T11:45:53.505Z,1016.63
2018-09-14T11:46:53.491Z,1016.62
2018-09-14T11:47:53.491Z,1016.59
2018-09-14T11:48:53.540Z,1016.59
2018-09-14T11:49:53.520Z,1016.59
2018-09-14T11:50:53.551Z,1016.60
2018-09-14T11:51:53.569Z,1016.57
2018-09-14T11:52:53.589Z,1016.54
2018-09-14T11:53:53.580Z,1016.57
2018-09-14T11:54:53.638Z,1016.56
2018-09-14T11:55:53.653Z,1016.51
2018-09-14T11:56:53.605Z,1016.51
2018-09-14T11:57:53.652Z,1016.51
2018-09-14T11:58:54.353Z,1016.47
2018-09-14T11:59:53.682Z,1016.48
2018-09-14T12:00:53.675Z,1016.47
2018-09-14T12:01:53.733Z,1016.49
2018-09-14T12:02:53.696Z,1016.47
2018-09-14T12:03:53.695Z,1016.44
2018-09-14T12:04:53.747Z,1016.45
2018-09-14T12:05:53.812Z,1016.42